sensor_id;sensor_type;location;lat;lon;timestamp;P1;durP1;ratioP1;P2;durP2;ratioP2
30249;SDS011;17064;47.974;13.826;2022-07-29T00:04:25;7.90;;;6.65;;
30249;SDS011;17064;47.974;13.826;2022-07-29T00:09:46;8.27;;;6.97;;
30249;SDS011;17064;47.974;13.826;2022-07-29T00:15:07;8.35;;;7.05;;
30249;SDS011;17064;47.974;13.826;2022-07-29T00:20:29;7.68;;;6.88;;
30249;SDS011;17064;47.974;13.826;2022-07-29T00:25:50;8.20;;;7.28;;
30249;SDS011;17064;47.974;13.826;2022-07-29T00:31:10;7.80;;;7.05;;
30249;SDS011;17064;47.974;13.826;2022-07-29T00:36:32;9.63;;;6.88;;
30249;SDS011;17064;47.974;13.826;2022-07-29T00:41:53;11.60;;;7.40;;
30249;SDS011;17064;47.974;13.826;2022-07-29T00:47:14;9.13;;;6.97;;
30249;SDS011;17064;47.974;13.826;2022-07-29T00:52:35;9.13;;;7.28;;
30249;SDS011;17064;47.974;13.826;2022-07-29T00:57:58;11.32;;;7.55;;
30249;SDS011;17064;47.974;13.826;2022-07-29T01:03:19;8.85;;;6.78;;
30249;SDS011;17064;47.974;13.826;2022-07-29T01:08:40;8.60;;;7.10;;
30249;SDS011;17064;47.974;13.826;2022-07-29T01:14:02;8.48;;;7.45;;
30249;SDS011;17064;47.974;13.826;2022-07-29T01:19:32;8.60;;;7.38;;
30249;SDS011;17064;47.974;13.826;2022-07-29T01:25:09;10.00;;;7.60;;
30249;SDS011;17064;47.974;13.826;2022-07-29T01:30:53;9.52;;;7.20;;
30249;SDS011;17064;47.974;13.826;2022-07-29T01:36:22;10.07;;;7.45;;
30249;SDS011;17064;47.974;13.826;2022-07-29T01:41:58;11.13;;;6.97;;
30249;SDS011;17064;47.974;13.826;2022-07-29T01:47:35;9.40;;;6.47;;
30249;SDS011;17064;47.974;13.826;2022-07-29T01:53:01;7.90;;;6.57;;
30249;SDS011;17064;47.974;13.826;2022-07-29T01:58:25;9.95;;;7.90;;
30249;SDS011;17064;47.974;13.826;2022-07-29T02:03:47;9.13;;;7.17;;
30249;SDS011;17064;47.974;13.826;2022-07-29T02:09:10;9.18;;;7.40;;
30249;SDS011;17064;47.974;13.826;2022-07-29T02:14:39;10.10;;;8.93;;
30249;SDS011;17064;47.974;13.826;2022-07-29T02:20:04;10.63;;;7.43;;
30249;SDS011;17064;47.974;13.826;2022-07-29T02:25:25;9.75;;;8.02;;
30249;SDS011;17064;47.974;13.826;2022-07-29T02:30:47;7.95;;;6.78;;
30249;SDS011;17064;47.974;13.826;2022-07-29T02:36:11;11.20;;;6.95;;
30249;SDS011;17064;47.974;13.826;2022-07-29T02:41:35;13.48;;;8.23;;
30249;SDS011;17064;47.974;13.826;2022-07-29T02:47:13;10.35;;;8.00;;
30249;SDS011;17064;47.974;13.826;2022-07-29T02:58:01;8.15;;;6.53;;
30249;SDS011;17064;47.974;13.826;2022-07-29T03:03:32;11.60;;;6.93;;
30249;SDS011;17064;47.974;13.826;2022-07-29T03:08:56;7.95;;;6.53;;
30249;SDS011;17064;47.974;13.826;2022-07-29T03:14:19;12.60;;;7.68;;
30249;SDS011;17064;47.974;13.826;2022-07-29T03:19:40;12.35;;;7.82;;
30249;SDS011;17064;47.974;13.826;2022-07-29T03:25:09;12.90;;;6.72;;
30249;SDS011;17064;47.974;13.826;2022-07-29T03:30:31;8.90;;;6.75;;
30249;SDS011;17064;47.974;13.826;2022-07-29T03:35:52;8.90;;;6.28;;
30249;SDS011;17064;47.974;13.826;2022-07-29T03:41:13;14.45;;;5.90;;
30249;SDS011;17064;47.974;13.826;2022-07-29T03:46:36;11.90;;;6.43;;
30249;SDS011;17064;47.974;13.826;2022-07-29T03:52:00;15.02;;;5.93;;
30249;SDS011;17064;47.974;13.826;2022-07-29T03:57:22;7.70;;;5.25;;
30249;SDS011;17064;47.974;13.826;2022-07-29T04:02:47;5.95;;;5.35;;
30249;SDS011;17064;47.974;13.826;2022-07-29T04:08:08;6.60;;;5.82;;
30249;SDS011;17064;47.974;13.826;2022-07-29T04:13:30;9.50;;;6.28;;
30249;SDS011;17064;47.974;13.826;2022-07-29T04:18:51;14.65;;;6.00;;
30249;SDS011;17064;47.974;13.826;2022-07-29T04:24:12;8.45;;;6.07;;
30249;SDS011;17064;47.974;13.826;2022-07-29T04:29:33;11.77;;;7.10;;
30249;SDS011;17064;47.974;13.826;2022-07-29T04:34:54;8.98;;;7.05;;
30249;SDS011;17064;47.974;13.826;2022-07-29T04:40:15;10.65;;;6.85;;
30249;SDS011;17064;47.974;13.826;2022-07-29T04:45:36;7.88;;;6.07;;
30249;SDS011;17064;47.974;13.826;2022-07-29T04:50:57;11.38;;;6.00;;
30249;SDS011;17064;47.974;13.826;2022-07-29T04:56:18;11.55;;;6.07;;
30249;SDS011;17064;47.974;13.826;2022-07-29T05:01:40;9.40;;;5.90;;
30249;SDS011;17064;47.974;13.826;2022-07-29T05:07:01;15.55;;;6.32;;
30249;SDS011;17064;47.974;13.826;2022-07-29T05:12:22;15.35;;;6.55;;
30249;SDS011;17064;47.974;13.826;2022-07-29T05:17:44;10.47;;;6.17;;
30249;SDS011;17064;47.974;13.826;2022-07-29T05:23:05;11.45;;;5.88;;
30249;SDS011;17064;47.974;13.826;2022-07-29T05:28:26;14.75;;;6.57;;
30249;SDS011;17064;47.974;13.826;2022-07-29T05:33:47;10.60;;;6.25;;
30249;SDS011;17064;47.974;13.826;2022-07-29T05:39:08;9.50;;;6.00;;
30249;SDS011;17064;47.974;13.826;2022-07-29T05:44:29;9.93;;;5.68;;
30249;SDS011;17064;47.974;13.826;2022-07-29T05:49:50;11.23;;;6.22;;
30249;SDS011;17064;47.974;13.826;2022-07-29T05:55:11;7.47;;;5.45;;
30249;SDS011;17064;47.974;13.826;2022-07-29T06:00:32;6.78;;;5.60;;
30249;SDS011;17064;47.974;13.826;2022-07-29T06:05:53;9.02;;;5.88;;
30249;SDS011;17064;47.974;13.826;2022-07-29T06:11:14;5.93;;;5.00;;
30249;SDS011;17064;47.974;13.826;2022-07-29T06:16:35;8.50;;;4.70;;
30249;SDS011;17064;47.974;13.826;2022-07-29T06:21:56;8.50;;;5.03;;
30249;SDS011;17064;47.974;13.826;2022-07-29T06:27:17;13.00;;;4.80;;
30249;SDS011;17064;47.974;13.826;2022-07-29T06:32:38;6.38;;;4.35;;
30249;SDS011;17064;47.974;13.826;2022-07-29T06:38:00;6.55;;;4.60;;
30249;SDS011;17064;47.974;13.826;2022-07-29T06:43:21;6.15;;;3.85;;
30249;SDS011;17064;47.974;13.826;2022-07-29T06:48:43;8.20;;;4.18;;
30249;SDS011;17064;47.974;13.826;2022-07-29T06:54:04;7.63;;;3.13;;
30249;SDS011;17064;47.974;13.826;2022-07-29T06:59:26;6.97;;;3.83;;
30249;SDS011;17064;47.974;13.826;2022-07-29T07:04:46;9.25;;;4.15;;
30249;SDS011;17064;47.974;13.826;2022-07-29T07:10:08;6.22;;;3.80;;
30249;SDS011;17064;47.974;13.826;2022-07-29T07:15:29;6.68;;;5.68;;
30249;SDS011;17064;47.974;13.826;2022-07-29T07:20:50;6.80;;;5.80;;
30249;SDS011;17064;47.974;13.826;2022-07-29T07:26:11;8.85;;;5.72;;
30249;SDS011;17064;47.974;13.826;2022-07-29T07:31:32;9.52;;;5.65;;
30249;SDS011;17064;47.974;13.826;2022-07-29T07:36:53;8.63;;;6.03;;
30249;SDS011;17064;47.974;13.826;2022-07-29T07:42:14;9.55;;;5.75;;
30249;SDS011;17064;47.974;13.826;2022-07-29T07:47:38;9.93;;;5.90;;
30249;SDS011;17064;47.974;13.826;2022-07-29T07:53:00;8.30;;;5.63;;
30249;SDS011;17064;47.974;13.826;2022-07-29T07:58:22;6.72;;;6.00;;
30249;SDS011;17064;47.974;13.826;2022-07-29T08:03:43;6.47;;;5.03;;
30249;SDS011;17064;47.974;13.826;2022-07-29T08:09:04;15.63;;;7.07;;
30249;SDS011;17064;47.974;13.826;2022-07-29T08:14:25;12.13;;;5.88;;
30249;SDS011;17064;47.974;13.826;2022-07-29T08:19:46;8.70;;;6.20;;
30249;SDS011;17064;47.974;13.826;2022-07-29T08:25:08;6.40;;;5.18;;
30249;SDS011;17064;47.974;13.826;2022-07-29T08:30:29;9.02;;;5.57;;
30249;SDS011;17064;47.974;13.826;2022-07-29T08:35:50;7.63;;;5.25;;
30249;SDS011;17064;47.974;13.826;2022-07-29T08:41:11;8.52;;;5.50;;
30249;SDS011;17064;47.974;13.826;2022-07-29T08:46:32;11.30;;;4.88;;
30249;SDS011;17064;47.974;13.826;2022-07-29T08:51:54;7.30;;;5.20;;
30249;SDS011;17064;47.974;13.826;2022-07-29T08:57:17;7.65;;;5.03;;
30249;SDS011;17064;47.974;13.826;2022-07-29T09:02:41;5.13;;;3.83;;
30249;SDS011;17064;47.974;13.826;2022-07-29T09:08:05;5.22;;;4.38;;
30249;SDS011;17064;47.974;13.826;2022-07-29T09:13:27;5.63;;;4.80;;
30249;SDS011;17064;47.974;13.826;2022-07-29T09:18:48;10.55;;;6.28;;
30249;SDS011;17064;47.974;13.826;2022-07-29T09:24:10;6.55;;;4.43;;
30249;SDS011;17064;47.974;13.826;2022-07-29T09:29:33;5.55;;;4.55;;
30249;SDS011;17064;47.974;13.826;2022-07-29T09:35:13;8.27;;;4.38;;
30249;SDS011;17064;47.974;13.826;2022-07-29T09:40:35;6.80;;;3.45;;
30249;SDS011;17064;47.974;13.826;2022-07-29T09:46:04;31.60;;;5.80;;
30249;SDS011;17064;47.974;13.826;2022-07-29T09:51:34;2.65;;;2.45;;
30249;SDS011;17064;47.974;13.826;2022-07-29T09:56:55;5.25;;;2.30;;
30249;SDS011;17064;47.974;13.826;2022-07-29T10:02:16;13.40;;;3.63;;
30249;SDS011;17064;47.974;13.826;2022-07-29T10:07:51;9.50;;;2.53;;
30249;SDS011;17064;47.974;13.826;2022-07-29T10:13:14;3.35;;;2.28;;
30249;SDS011;17064;47.974;13.826;2022-07-29T10:18:36;15.52;;;2.47;;
30249;SDS011;17064;47.974;13.826;2022-07-29T10:23:59;5.47;;;1.95;;
30249;SDS011;17064;47.974;13.826;2022-07-29T10:29:21;2.78;;;1.92;;
30249;SDS011;17064;47.974;13.826;2022-07-29T10:40:20;3.03;;;2.10;;
30249;SDS011;17064;47.974;13.826;2022-07-29T10:46:20;3.85;;;2.05;;
30249;SDS011;17064;47.974;13.826;2022-07-29T11:02:45;6.32;;;2.50;;
30249;SDS011;17064;47.974;13.826;2022-07-29T11:24:31;4.53;;;2.33;;
30249;SDS011;17064;47.974;13.826;2022-07-29T11:41:01;3.78;;;2.10;;
30249;SDS011;17064;47.974;13.826;2022-07-29T11:46:48;2.53;;;2.10;;
30249;SDS011;17064;47.974;13.826;2022-07-29T11:52:10;3.13;;;2.40;;
30249;SDS011;17064;47.974;13.826;2022-07-29T11:57:31;3.60;;;2.20;;
30249;SDS011;17064;47.974;13.826;2022-07-29T12:02:55;5.72;;;2.20;;
30249;SDS011;17064;47.974;13.826;2022-07-29T12:08:19;3.13;;;2.13;;
30249;SDS011;17064;47.974;13.826;2022-07-29T12:13:42;5.03;;;2.30;;
30249;SDS011;17064;47.974;13.826;2022-07-29T12:19:03;14.65;;;2.70;;
30249;SDS011;17064;47.974;13.826;2022-07-29T12:24:24;9.65;;;2.30;;
30249;SDS011;17064;47.974;13.826;2022-07-29T12:35:46;5.03;;;2.23;;
30249;SDS011;17064;47.974;13.826;2022-07-29T12:41:09;4.32;;;1.88;;
30249;SDS011;17064;47.974;13.826;2022-07-29T12:46:31;16.55;;;2.50;;
30249;SDS011;17064;47.974;13.826;2022-07-29T12:51:54;9.95;;;2.25;;
30249;SDS011;17064;47.974;13.826;2022-07-29T12:57:15;7.40;;;1.98;;
30249;SDS011;17064;47.974;13.826;2022-07-29T13:02:37;4.93;;;1.90;;
30249;SDS011;17064;47.974;13.826;2022-07-29T13:08:09;11.60;;;2.35;;
30249;SDS011;17064;47.974;13.826;2022-07-29T13:13:42;2.15;;;1.40;;
30249;SDS011;17064;47.974;13.826;2022-07-29T13:19:11;3.67;;;1.52;;
30249;SDS011;17064;47.974;13.826;2022-07-29T13:24:32;2.00;;;1.58;;
30249;SDS011;17064;47.974;13.826;2022-07-29T13:29:55;11.15;;;1.90;;
30249;SDS011;17064;47.974;13.826;2022-07-29T13:35:18;4.70;;;1.90;;
30249;SDS011;17064;47.974;13.826;2022-07-29T13:40:40;5.68;;;1.80;;
30249;SDS011;17064;47.974;13.826;2022-07-29T13:46:02;2.17;;;1.77;;
30249;SDS011;17064;47.974;13.826;2022-07-29T13:51:23;7.65;;;1.58;;
30249;SDS011;17064;47.974;13.826;2022-07-29T13:56:44;2.30;;;1.58;;
30249;SDS011;17064;47.974;13.826;2022-07-29T14:07:26;4.97;;;1.77;;
30249;SDS011;17064;47.974;13.826;2022-07-29T14:12:47;6.20;;;1.75;;
30249;SDS011;17064;47.974;13.826;2022-07-29T14:18:08;4.00;;;2.03;;
30249;SDS011;17064;47.974;13.826;2022-07-29T14:23:29;6.07;;;1.65;;
30249;SDS011;17064;47.974;13.826;2022-07-29T14:28:50;3.60;;;1.73;;
30249;SDS011;17064;47.974;13.826;2022-07-29T14:34:11;5.88;;;2.20;;
30249;SDS011;17064;47.974;13.826;2022-07-29T14:39:33;3.38;;;1.80;;
30249;SDS011;17064;47.974;13.826;2022-07-29T14:44:55;2.88;;;1.88;;
30249;SDS011;17064;47.974;13.826;2022-07-29T14:50:16;8.60;;;2.08;;
30249;SDS011;17064;47.974;13.826;2022-07-29T14:55:39;3.63;;;1.88;;
30249;SDS011;17064;47.974;13.826;2022-07-29T15:01:00;6.97;;;2.25;;
30249;SDS011;17064;47.974;13.826;2022-07-29T15:06:21;5.07;;;1.70;;
30249;SDS011;17064;47.974;13.826;2022-07-29T15:11:43;5.50;;;1.93;;
30249;SDS011;17064;47.974;13.826;2022-07-29T15:17:07;3.42;;;1.77;;
30249;SDS011;17064;47.974;13.826;2022-07-29T15:22:28;1.57;;;1.47;;
30249;SDS011;17064;47.974;13.826;2022-07-29T15:27:49;2.70;;;2.03;;
30249;SDS011;17064;47.974;13.826;2022-07-29T15:33:10;11.97;;;2.70;;
30249;SDS011;17064;47.974;13.826;2022-07-29T15:38:31;5.37;;;2.00;;
30249;SDS011;17064;47.974;13.826;2022-07-29T15:43:53;5.03;;;2.30;;
30249;SDS011;17064;47.974;13.826;2022-07-29T15:49:14;6.23;;;2.23;;
30249;SDS011;17064;47.974;13.826;2022-07-29T15:54:36;4.07;;;2.25;;
30249;SDS011;17064;47.974;13.826;2022-07-29T15:59:58;6.40;;;1.83;;
30249;SDS011;17064;47.974;13.826;2022-07-29T16:05:20;3.40;;;2.10;;
30249;SDS011;17064;47.974;13.826;2022-07-29T16:10:41;3.22;;;2.13;;
30249;SDS011;17064;47.974;13.826;2022-07-29T16:16:02;3.00;;;2.13;;
30249;SDS011;17064;47.974;13.826;2022-07-29T16:21:23;3.10;;;2.20;;
30249;SDS011;17064;47.974;13.826;2022-07-29T16:26:44;8.95;;;2.30;;
30249;SDS011;17064;47.974;13.826;2022-07-29T16:32:05;2.97;;;2.35;;
30249;SDS011;17064;47.974;13.826;2022-07-29T16:37:27;4.90;;;2.10;;
30249;SDS011;17064;47.974;13.826;2022-07-29T16:42:54;2.67;;;1.83;;
30249;SDS011;17064;47.974;13.826;2022-07-29T16:48:15;8.70;;;2.80;;
30249;SDS011;17064;47.974;13.826;2022-07-29T16:53:37;9.00;;;2.80;;
30249;SDS011;17064;47.974;13.826;2022-07-29T16:58:58;2.58;;;2.00;;
30249;SDS011;17064;47.974;13.826;2022-07-29T17:04:19;12.52;;;2.78;;
30249;SDS011;17064;47.974;13.826;2022-07-29T17:09:40;4.63;;;2.33;;
30249;SDS011;17064;47.974;13.826;2022-07-29T17:15:02;6.03;;;2.37;;
30249;SDS011;17064;47.974;13.826;2022-07-29T17:20:24;4.53;;;2.47;;
30249;SDS011;17064;47.974;13.826;2022-07-29T17:25:46;7.15;;;2.58;;
30249;SDS011;17064;47.974;13.826;2022-07-29T17:31:07;3.80;;;2.60;;
30249;SDS011;17064;47.974;13.826;2022-07-29T17:36:28;7.13;;;2.50;;
30249;SDS011;17064;47.974;13.826;2022-07-29T17:41:53;3.38;;;2.58;;
30249;SDS011;17064;47.974;13.826;2022-07-29T17:47:14;3.43;;;2.43;;
30249;SDS011;17064;47.974;13.826;2022-07-29T17:52:35;13.10;;;3.15;;
30249;SDS011;17064;47.974;13.826;2022-07-29T17:57:58;8.93;;;3.15;;
30249;SDS011;17064;47.974;13.826;2022-07-29T18:03:19;3.90;;;2.47;;
30249;SDS011;17064;47.974;13.826;2022-07-29T18:08:43;2.58;;;2.08;;
30249;SDS011;17064;47.974;13.826;2022-07-29T18:14:06;4.25;;;2.42;;
30249;SDS011;17064;47.974;13.826;2022-07-29T18:19:28;2.95;;;2.67;;
30249;SDS011;17064;47.974;13.826;2022-07-29T18:24:49;15.98;;;3.92;;
30249;SDS011;17064;47.974;13.826;2022-07-29T18:30:10;4.75;;;2.70;;
30249;SDS011;17064;47.974;13.826;2022-07-29T18:35:31;3.00;;;2.63;;
30249;SDS011;17064;47.974;13.826;2022-07-29T18:40:52;7.72;;;3.42;;
30249;SDS011;17064;47.974;13.826;2022-07-29T18:46:13;4.13;;;2.92;;
30249;SDS011;17064;47.974;13.826;2022-07-29T18:51:34;4.07;;;2.95;;
30249;SDS011;17064;47.974;13.826;2022-07-29T18:56:55;4.35;;;3.00;;
30249;SDS011;17064;47.974;13.826;2022-07-29T19:02:23;2.92;;;2.67;;
30249;SDS011;17064;47.974;13.826;2022-07-29T19:07:44;3.78;;;3.30;;
30249;SDS011;17064;47.974;13.826;2022-07-29T19:13:05;4.82;;;3.22;;
30249;SDS011;17064;47.974;13.826;2022-07-29T19:18:27;3.92;;;2.65;;
30249;SDS011;17064;47.974;13.826;2022-07-29T19:23:48;6.07;;;3.15;;
30249;SDS011;17064;47.974;13.826;2022-07-29T19:29:09;13.23;;;2.45;;
30249;SDS011;17064;47.974;13.826;2022-07-29T19:34:30;3.38;;;2.00;;
30249;SDS011;17064;47.974;13.826;2022-07-29T19:39:51;4.20;;;1.55;;
30249;SDS011;17064;47.974;13.826;2022-07-29T19:45:12;4.47;;;2.00;;
30249;SDS011;17064;47.974;13.826;2022-07-29T19:50:33;4.38;;;2.65;;
30249;SDS011;17064;47.974;13.826;2022-07-29T19:55:54;3.65;;;2.28;;
30249;SDS011;17064;47.974;13.826;2022-07-29T20:01:15;3.65;;;2.00;;
30249;SDS011;17064;47.974;13.826;2022-07-29T20:06:36;2.00;;;1.65;;
30249;SDS011;17064;47.974;13.826;2022-07-29T20:11:57;3.55;;;1.95;;
30249;SDS011;17064;47.974;13.826;2022-07-29T20:17:19;3.78;;;2.28;;
30249;SDS011;17064;47.974;13.826;2022-07-29T20:22:41;3.15;;;1.80;;
30249;SDS011;17064;47.974;13.826;2022-07-29T20:28:03;3.47;;;2.28;;
30249;SDS011;17064;47.974;13.826;2022-07-29T20:33:27;3.10;;;1.80;;
30249;SDS011;17064;47.974;13.826;2022-07-29T20:38:48;3.13;;;2.33;;
30249;SDS011;17064;47.974;13.826;2022-07-29T20:44:09;3.38;;;2.40;;
30249;SDS011;17064;47.974;13.826;2022-07-29T20:49:30;3.55;;;2.55;;
30249;SDS011;17064;47.974;13.826;2022-07-29T20:54:51;3.00;;;2.22;;
30249;SDS011;17064;47.974;13.826;2022-07-29T21:00:12;2.65;;;2.20;;
30249;SDS011;17064;47.974;13.826;2022-07-29T21:05:35;4.55;;;2.03;;
30249;SDS011;17064;47.974;13.826;2022-07-29T21:10:56;2.50;;;2.05;;
30249;SDS011;17064;47.974;13.826;2022-07-29T21:16:17;2.40;;;2.20;;
30249;SDS011;17064;47.974;13.826;2022-07-29T21:21:39;3.70;;;2.40;;
30249;SDS011;17064;47.974;13.826;2022-07-29T21:27:00;4.57;;;2.53;;
30249;SDS011;17064;47.974;13.826;2022-07-29T21:32:40;5.65;;;2.97;;
30249;SDS011;17064;47.974;13.826;2022-07-29T21:38:01;5.90;;;2.88;;
30249;SDS011;17064;47.974;13.826;2022-07-29T21:43:22;4.78;;;2.33;;
30249;SDS011;17064;47.974;13.826;2022-07-29T21:48:44;4.00;;;2.63;;
30249;SDS011;17064;47.974;13.826;2022-07-29T21:54:05;5.80;;;2.72;;
30249;SDS011;17064;47.974;13.826;2022-07-29T21:59:26;5.45;;;2.72;;
30249;SDS011;17064;47.974;13.826;2022-07-29T22:04:47;2.83;;;2.60;;
30249;SDS011;17064;47.974;13.826;2022-07-29T22:10:08;5.25;;;2.33;;
30249;SDS011;17064;47.974;13.826;2022-07-29T22:15:29;3.20;;;2.42;;
30249;SDS011;17064;47.974;13.826;2022-07-29T22:20:50;3.10;;;2.40;;
30249;SDS011;17064;47.974;13.826;2022-07-29T22:26:11;2.90;;;2.22;;
30249;SDS011;17064;47.974;13.826;2022-07-29T22:31:32;3.58;;;1.92;;
30249;SDS011;17064;47.974;13.826;2022-07-29T22:36:53;2.30;;;1.80;;
30249;SDS011;17064;47.974;13.826;2022-07-29T22:42:14;1.95;;;1.83;;
30249;SDS011;17064;47.974;13.826;2022-07-29T22:47:35;1.73;;;1.63;;
30249;SDS011;17064;47.974;13.826;2022-07-29T22:52:57;1.63;;;1.30;;
30249;SDS011;17064;47.974;13.826;2022-07-29T22:58:18;2.92;;;1.50;;
30249;SDS011;17064;47.974;13.826;2022-07-29T23:03:39;3.15;;;1.35;;
30249;SDS011;17064;47.974;13.826;2022-07-29T23:09:00;1.58;;;1.40;;
30249;SDS011;17064;47.974;13.826;2022-07-29T23:14:21;1.65;;;1.33;;
30249;SDS011;17064;47.974;13.826;2022-07-29T23:19:42;3.10;;;1.73;;
30249;SDS011;17064;47.974;13.826;2022-07-29T23:25:03;3.70;;;1.42;;
30249;SDS011;17064;47.974;13.826;2022-07-29T23:30:25;2.22;;;1.55;;
30249;SDS011;17064;47.974;13.826;2022-07-29T23:35:46;1.80;;;1.67;;
30249;SDS011;17064;47.974;13.826;2022-07-29T23:41:07;2.83;;;1.63;;
30249;SDS011;17064;47.974;13.826;2022-07-29T23:46:29;1.70;;;1.60;;
30249;SDS011;17064;47.974;13.826;2022-07-29T23:51:50;1.73;;;1.63;;
30249;SDS011;17064;47.974;13.826;2022-07-29T23:57:10;2.65;;;1.98;;
